Weather History for Andrews, TX

Change the Weather History Date:

Wednesday, November 7, 2012

  Actual Average (KMAF) Record (KMAF)
Temperature  
Mean Temperature 62 °F 56 °F  
Max Temperature 80 °F 70 °F 88 °F (1963)
Min Temperature 43 °F 43 °F 22 °F (1938)
Degree Days  
Heating Degree Days 4 9  
Month to date heating degree days 55  
Since 1 July heating degree days 164  
Growing Degree Days 12 (Base 50)    
Moisture  
Dew Point 40 °F    
Average Humidity 48    
Maximum Humidity 80    
Minimum Humidity 20    
Precipitation  
Precipitation 0.00 in 0.03 in 0.41 in (2000)
Month to date precipitation 0.19  
Year to date precipitation 13.50  
Snow  
Snow - - - ()
Month to date snowfall  
Since 1 July snowfall  
Since 1 September snowfall  
Snow Depth -    
Sea Level Pressure  
Sea Level Pressure 30.12 in    
Wind  
Wind Speed 5 mph ()    
Max Wind Speed 14 mph    
Max Gust Speed 20 mph    
Visibility 10.0 miles    
Events      
T = Trace of Precipitation, MM = Missing Value Source: Averaged Metar Reports

Daily Weather History Graph

Daily Weather History Graph

Search for Another Location

Airport:

Trip Planner

Search our weather history database for the weather conditions in past years. The results will help you decide how hot, cold, wet, or windy it might be!

Date:

Astronomy

Nov. 07, 2012 Rise Set
Actual Time 7:12 AM CST 5:54 PM CST
Civil Twilight 6:47 AM CST 6:20 PM CST
Nautical Twilight 6:17 AM CST 6:49 PM CST
Astronomical Twilight 5:48 AM CST 7:18 PM CST
Moon 12:32 AM CST (11/7) 1:43 PM CST (11/7)
Length of Visible Light 11h 32m
Length of Day
10h 41m
Last Quarter, 43% of the Moon is Illuminated
Nov 7
Last Quarter
Nov 13
New
Nov 20
First Quarter
Nov 28
Full
Dec 6
Last Quarter

Hourly Weather History & Observations

Time (CST) Temp. Windchill Dew Point Humidity Pressure Visibility Wind Dir Wind Speed Gust Speed Precip Events Conditions
12:15 AM 52.3 °F - 36.5 °F 55% 30.20 in 10.0 mi South 3.5 mph - N/A   Clear
12:35 AM 53.4 °F - 36.7 °F 53% 30.20 in 10.0 mi Calm Calm - N/A   Clear
12:55 AM 52.3 °F - 36.7 °F 55% 30.20 in 10.0 mi South 3.5 mph - N/A   Clear
1:15 AM 49.1 °F - 36.1 °F 61% 30.20 in 10.0 mi Calm Calm - N/A   Clear
1:35 AM 48.9 °F - 36.5 °F 62% 30.20 in 10.0 mi Calm Calm - N/A   Clear
1:55 AM 51.3 °F - 36.7 °F 57% 30.20 in 10.0 mi South 4.6 mph - N/A   Clear
2:15 AM 51.4 °F - 37.6 °F 59% 30.20 in 10.0 mi SSW 3.5 mph - N/A   Clear
2:55 AM 48.4 °F - 36.9 °F 64% 30.19 in 10.0 mi Calm Calm - N/A   Clear
3:15 AM 46.4 °F - 36.3 °F 68% 30.18 in 10.0 mi Calm Calm - N/A   Clear
3:35 AM 46.0 °F 43.9 °F 36.5 °F 69% 30.18 in 10.0 mi NE 4.6 mph - N/A   Clear
3:55 AM 46.2 °F 44.1 °F 36.5 °F 69% 30.18 in 10.0 mi NNE 4.6 mph - N/A   Clear
4:15 AM 45.7 °F - 36.5 °F 70% 30.18 in 10.0 mi Calm Calm - N/A   Clear
4:35 AM 44.4 °F - 36.0 °F 72% 30.18 in 10.0 mi Calm Calm - N/A   Clear
4:55 AM 44.8 °F - 36.0 °F 71% 30.18 in 10.0 mi Calm Calm - N/A   Clear
5:15 AM 44.1 °F - 35.6 °F 72% 30.18 in 10.0 mi Calm Calm - N/A   Clear
5:35 AM 45.0 °F - 36.5 °F 72% 30.17 in 10.0 mi Calm Calm - N/A   Clear
6:15 AM 43.0 °F - 36.0 °F 76% 30.18 in 10.0 mi Calm Calm - N/A   Clear
6:35 AM 43.0 °F - 35.8 °F 76% 30.18 in 10.0 mi Calm Calm - N/A   Clear
6:55 AM 43.9 °F - 35.8 °F 73% 30.18 in 10.0 mi Calm Calm - N/A   Clear
7:15 AM 43.2 °F - 37.2 °F 80% 30.19 in 10.0 mi Calm Calm - N/A   Clear
7:35 AM 43.3 °F - 36.5 °F 77% 30.19 in 10.0 mi Calm Calm - N/A   Clear
7:55 AM 45.0 °F - 37.0 °F 74% 30.20 in 10.0 mi Calm Calm - N/A   Clear
8:15 AM 49.5 °F - 40.1 °F 70% 30.20 in 10.0 mi Calm Calm - N/A   Clear
8:35 AM 55.9 °F - 41.9 °F 59% 30.20 in 10.0 mi South 5.8 mph - N/A   Clear
8:55 AM 57.7 °F - 42.1 °F 56% 30.20 in 10.0 mi SSE 5.8 mph - N/A   Clear
9:15 AM 60.8 °F - 43.0 °F 52% 30.21 in 10.0 mi SE 5.8 mph - N/A   Clear
9:35 AM 63.5 °F - 43.5 °F 48% 30.20 in 10.0 mi South 6.9 mph - N/A   Clear
9:55 AM 65.3 °F - 43.9 °F 46% 30.20 in 10.0 mi South 6.9 mph - N/A   Clear
10:15 AM 67.5 °F - 44.1 °F 43% 30.20 in 10.0 mi South 9.2 mph - N/A   Clear
10:35 AM 69.4 °F - 44.4 °F 41% 30.19 in 10.0 mi South 6.9 mph - N/A   Clear
10:55 AM 69.8 °F - 43.7 °F 39% 30.19 in 10.0 mi SSE 8.1 mph - N/A   Clear
11:15 AM 72.3 °F - 43.5 °F 35% 30.18 in 10.0 mi South 10.4 mph - N/A   Clear
11:35 AM 73.9 °F - 44.1 °F 34% 30.17 in 10.0 mi South 10.4 mph - N/A   Clear
11:55 AM 74.7 °F - 43.5 °F 33% 30.16 in 10.0 mi SSW 12.7 mph - N/A   Clear
12:15 PM 75.4 °F - 43.3 °F 32% 30.14 in 10.0 mi South 13.8 mph 17.3 mph N/A   Clear
12:35 PM 76.1 °F - 43.2 °F 31% 30.13 in 10.0 mi South 13.8 mph 19.6 mph N/A   Clear
12:55 PM 77.0 °F - 43.2 °F 30% 30.12 in 10.0 mi South 12.7 mph 18.4 mph N/A   Clear
1:15 PM 77.9 °F - 43.3 °F 29% 30.10 in 10.0 mi South 11.5 mph 18.4 mph N/A   Clear
1:35 PM 78.4 °F - 42.4 °F 28% 30.09 in 10.0 mi South 12.7 mph 19.6 mph N/A   Clear
1:55 PM 79.3 °F - 42.4 °F 27% 30.08 in 10.0 mi South 12.7 mph 17.3 mph N/A   Clear
2:15 PM 79.5 °F - 41.9 °F 26% 30.07 in 10.0 mi SSW 11.5 mph - N/A   Clear
2:35 PM 79.7 °F - 39.9 °F 24% 30.07 in 10.0 mi South 11.5 mph - N/A   Clear
2:55 PM 80.2 °F - 38.7 °F 23% 30.06 in 10.0 mi SSW 12.7 mph 17.3 mph N/A   Clear
3:15 PM 80.2 °F - 37.4 °F 21% 30.05 in 10.0 mi SSW 10.4 mph 18.4 mph N/A   Clear
3:35 PM 80.6 °F - 37.0 °F 21% 30.04 in 10.0 mi SSW 12.7 mph 19.6 mph N/A   Clear
3:55 PM 80.1 °F - 36.3 °F 21% 30.04 in 10.0 mi SSW 9.2 mph - N/A   Clear
4:15 PM 79.7 °F - 36.1 °F 21% 30.04 in 10.0 mi SW 10.4 mph - N/A   Clear
4:35 PM 79.5 °F - 35.2 °F 20% 30.04 in 10.0 mi SSW 9.2 mph - N/A   Clear
5:15 PM 77.4 °F - 33.4 °F 20% 30.03 in 10.0 mi SSW 8.1 mph - N/A   Clear
5:35 PM 75.6 °F - 33.3 °F 21% 30.03 in 10.0 mi SSW 8.1 mph - N/A   Clear
5:55 PM 71.8 °F - 34.5 °F 26% 30.03 in 10.0 mi South 5.8 mph - N/A   Clear
6:15 PM 68.7 °F - 36.0 °F 30% 30.04 in 10.0 mi South 5.8 mph - N/A   Clear
6:35 PM 67.3 °F - 36.0 °F 32% 30.04 in 10.0 mi SSW 6.9 mph - N/A   Clear
6:55 PM 67.6 °F - 34.7 °F 30% 30.04 in 10.0 mi SSW 6.9 mph - N/A   Clear
7:15 PM 66.2 °F - 34.7 °F 31% 30.05 in 10.0 mi SSW 6.9 mph - N/A   Clear
7:35 PM 66.0 °F - 35.6 °F 32% 30.05 in 10.0 mi South 6.9 mph - N/A   Clear
7:55 PM 66.7 °F - 38.5 °F 35% 30.06 in 10.0 mi South 8.1 mph - N/A   Clear
8:15 PM 65.3 °F - 40.1 °F 40% 30.06 in 10.0 mi South 8.1 mph - N/A   Clear
8:35 PM 63.7 °F - 41.2 °F 44% 30.06 in 10.0 mi South 8.1 mph - N/A   Clear
8:55 PM 62.8 °F - 41.9 °F 46% 30.06 in 10.0 mi South 9.2 mph - N/A   Clear
9:15 PM 60.8 °F - 42.1 °F 50% 30.06 in 10.0 mi South 5.8 mph - N/A   Clear
9:35 PM 60.1 °F - 42.3 °F 52% 30.06 in 10.0 mi South 8.1 mph - N/A   Clear
9:55 PM 59.9 °F - 42.8 °F 53% 30.06 in 10.0 mi SSW 9.2 mph - N/A   Clear
10:15 PM 60.6 °F - 43.9 °F 54% 30.06 in 10.0 mi SSW 9.2 mph - N/A   Clear
10:35 PM 60.8 °F - 45.0 °F 56% 30.06 in 10.0 mi SSW 11.5 mph - N/A   Clear
10:55 PM 61.5 °F - 46.8 °F 58% 30.05 in 10.0 mi SSW 13.8 mph 18.4 mph N/A   Clear
11:15 PM 61.9 °F - 48.2 °F 61% 30.05 in 10.0 mi SSW 12.7 mph 17.3 mph N/A   Clear
11:35 PM 61.2 °F - 48.6 °F 63% 30.04 in 10.0 mi SSW 12.7 mph 18.4 mph N/A   Clear
11:55 PM 61.3 °F - 49.5 °F 65% 30.04 in 10.0 mi SSW 13.8 mph 17.3 mph N/A   Clear